sensor_id;sensor_type;location;lat;lon;timestamp;P1;durP1;ratioP1;P2;durP2;ratioP2
54855;SDS011;40748;53.168;5.800;2022-11-30T00:01:34;0.30;;;0.00;;
54855;SDS011;40748;53.168;5.800;2022-11-30T00:04:04;3.60;;;0.30;;
54855;SDS011;40748;53.168;5.800;2022-11-30T00:09:04;3.60;;;0.30;;
54855;SDS011;40748;53.168;5.800;2022-11-30T00:11:34;3.60;;;0.30;;
54855;SDS011;40748;53.168;5.800;2022-11-30T00:14:04;0.10;;;0.00;;
54855;SDS011;40748;53.168;5.800;2022-11-30T00:16:34;0.10;;;0.00;;
54855;SDS011;40748;53.168;5.800;2022-11-30T00:19:04;0.10;;;0.00;;
54855;SDS011;40748;53.168;5.800;2022-11-30T00:21:34;0.10;;;0.00;;
54855;SDS011;40748;53.168;5.800;2022-11-30T00:24:04;0.50;;;0.10;;
54855;SDS011;40748;53.168;5.800;2022-11-30T00:26:34;0.50;;;0.10;;
54855;SDS011;40748;53.168;5.800;2022-11-30T00:29:04;0.50;;;0.10;;
54855;SDS011;40748;53.168;5.800;2022-11-30T00:31:34;0.50;;;0.10;;
54855;SDS011;40748;53.168;5.800;2022-11-30T00:34:04;0.20;;;0.10;;
54855;SDS011;40748;53.168;5.800;2022-11-30T00:36:34;0.20;;;0.10;;
54855;SDS011;40748;53.168;5.800;2022-11-30T00:39:04;0.20;;;0.10;;
54855;SDS011;40748;53.168;5.800;2022-11-30T00:41:34;0.20;;;0.10;;
54855;SDS011;40748;53.168;5.800;2022-11-30T00:44:04;0.10;;;0.00;;
54855;SDS011;40748;53.168;5.800;2022-11-30T00:46:34;0.10;;;0.00;;
54855;SDS011;40748;53.168;5.800;2022-11-30T00:49:04;0.10;;;0.00;;
54855;SDS011;40748;53.168;5.800;2022-11-30T00:51:34;0.10;;;0.00;;
54855;SDS011;40748;53.168;5.800;2022-11-30T00:54:04;0.70;;;0.20;;
54855;SDS011;40748;53.168;5.800;2022-11-30T00:56:34;0.70;;;0.20;;
54855;SDS011;40748;53.168;5.800;2022-11-30T00:59:04;0.70;;;0.20;;
54855;SDS011;40748;53.168;5.800;2022-11-30T01:01:34;0.70;;;0.20;;
54855;SDS011;40748;53.168;5.800;2022-11-30T01:04:04;0.20;;;0.00;;
54855;SDS011;40748;53.168;5.800;2022-11-30T01:06:34;0.20;;;0.00;;
54855;SDS011;40748;53.168;5.800;2022-11-30T01:09:04;0.20;;;0.00;;
54855;SDS011;40748;53.168;5.800;2022-11-30T01:11:34;0.20;;;0.00;;
54855;SDS011;40748;53.168;5.800;2022-11-30T01:14:04;0.10;;;0.00;;
54855;SDS011;40748;53.168;5.800;2022-11-30T01:16:34;0.10;;;0.00;;
54855;SDS011;40748;53.168;5.800;2022-11-30T01:19:04;0.10;;;0.00;;
54855;SDS011;40748;53.168;5.800;2022-11-30T01:21:34;0.10;;;0.00;;
54855;SDS011;40748;53.168;5.800;2022-11-30T01:24:04;0.20;;;0.00;;
54855;SDS011;40748;53.168;5.800;2022-11-30T01:26:34;0.20;;;0.00;;
54855;SDS011;40748;53.168;5.800;2022-11-30T01:29:04;0.20;;;0.00;;
54855;SDS011;40748;53.168;5.800;2022-11-30T01:31:34;0.20;;;0.00;;
54855;SDS011;40748;53.168;5.800;2022-11-30T01:34:04;0.30;;;0.10;;
54855;SDS011;40748;53.168;5.800;2022-11-30T01:36:34;0.30;;;0.10;;
54855;SDS011;40748;53.168;5.800;2022-11-30T01:39:06;0.30;;;0.10;;
54855;SDS011;40748;53.168;5.800;2022-11-30T01:41:35;0.30;;;0.10;;
54855;SDS011;40748;53.168;5.800;2022-11-30T01:46:37;0.40;;;0.20;;
54855;SDS011;40748;53.168;5.800;2022-11-30T01:49:13;0.40;;;0.20;;
54855;SDS011;40748;53.168;5.800;2022-11-30T01:51:38;0.40;;;0.20;;
54855;SDS011;40748;53.168;5.800;2022-11-30T01:54:07;0.10;;;0.00;;
54855;SDS011;40748;53.168;5.800;2022-11-30T01:56:34;0.10;;;0.00;;
54855;SDS011;40748;53.168;5.800;2022-11-30T01:59:04;0.10;;;0.00;;
54855;SDS011;40748;53.168;5.800;2022-11-30T02:01:34;0.10;;;0.00;;
54855;SDS011;40748;53.168;5.800;2022-11-30T02:04:08;0.20;;;0.10;;
54855;SDS011;40748;53.168;5.800;2022-11-30T02:06:34;0.20;;;0.10;;
54855;SDS011;40748;53.168;5.800;2022-11-30T02:09:04;0.20;;;0.10;;
54855;SDS011;40748;53.168;5.800;2022-11-30T02:11:34;0.20;;;0.10;;
54855;SDS011;40748;53.168;5.800;2022-11-30T02:14:13;0.20;;;0.00;;
54855;SDS011;40748;53.168;5.800;2022-11-30T02:19:23;0.20;;;0.00;;
54855;SDS011;40748;53.168;5.800;2022-11-30T02:24:15;0.30;;;0.10;;
54855;SDS011;40748;53.168;5.800;2022-11-30T02:26:48;0.30;;;0.10;;
54855;SDS011;40748;53.168;5.800;2022-11-30T02:31:39;0.50;;;0.10;;
54855;SDS011;40748;53.168;5.800;2022-11-30T02:34:06;0.50;;;0.10;;
54855;SDS011;40748;53.168;5.800;2022-11-30T02:36:34;0.50;;;0.10;;
54855;SDS011;40748;53.168;5.800;2022-11-30T02:39:04;0.50;;;0.10;;
54855;SDS011;40748;53.168;5.800;2022-11-30T02:41:36;0.70;;;0.50;;
54855;SDS011;40748;53.168;5.800;2022-11-30T02:44:05;0.70;;;0.50;;
54855;SDS011;40748;53.168;5.800;2022-11-30T02:46:45;0.70;;;0.50;;
54855;SDS011;40748;53.168;5.800;2022-11-30T02:49:09;0.70;;;0.50;;
54855;SDS011;40748;53.168;5.800;2022-11-30T02:51:36;0.10;;;0.00;;
54855;SDS011;40748;53.168;5.800;2022-11-30T02:54:04;0.10;;;0.00;;
54855;SDS011;40748;53.168;5.800;2022-11-30T02:56:34;0.10;;;0.00;;
54855;SDS011;40748;53.168;5.800;2022-11-30T02:59:04;0.10;;;0.00;;
54855;SDS011;40748;53.168;5.800;2022-11-30T03:01:34;0.70;;;0.50;;
54855;SDS011;40748;53.168;5.800;2022-11-30T03:04:04;0.70;;;0.50;;
54855;SDS011;40748;53.168;5.800;2022-11-30T03:06:34;0.70;;;0.50;;
54855;SDS011;40748;53.168;5.800;2022-11-30T03:09:04;0.70;;;0.50;;
54855;SDS011;40748;53.168;5.800;2022-11-30T03:11:34;0.10;;;0.00;;
54855;SDS011;40748;53.168;5.800;2022-11-30T03:14:04;0.10;;;0.00;;
54855;SDS011;40748;53.168;5.800;2022-11-30T03:16:35;0.10;;;0.00;;
54855;SDS011;40748;53.168;5.800;2022-11-30T03:19:04;0.10;;;0.00;;
54855;SDS011;40748;53.168;5.800;2022-11-30T03:21:34;0.20;;;0.00;;
54855;SDS011;40748;53.168;5.800;2022-11-30T03:24:04;0.20;;;0.00;;
54855;SDS011;40748;53.168;5.800;2022-11-30T03:26:34;0.20;;;0.00;;
54855;SDS011;40748;53.168;5.800;2022-11-30T03:31:34;0.10;;;0.00;;
54855;SDS011;40748;53.168;5.800;2022-11-30T03:34:04;0.10;;;0.00;;
54855;SDS011;40748;53.168;5.800;2022-11-30T03:36:34;0.10;;;0.00;;
54855;SDS011;40748;53.168;5.800;2022-11-30T03:39:04;0.10;;;0.00;;
54855;SDS011;40748;53.168;5.800;2022-11-30T03:41:34;0.30;;;0.10;;
54855;SDS011;40748;53.168;5.800;2022-11-30T03:44:04;0.30;;;0.10;;
54855;SDS011;40748;53.168;5.800;2022-11-30T03:46:34;0.30;;;0.10;;
54855;SDS011;40748;53.168;5.800;2022-11-30T03:49:04;0.30;;;0.10;;
54855;SDS011;40748;53.168;5.800;2022-11-30T03:51:34;0.70;;;0.10;;
54855;SDS011;40748;53.168;5.800;2022-11-30T03:54:04;0.70;;;0.10;;
54855;SDS011;40748;53.168;5.800;2022-11-30T03:56:34;0.70;;;0.10;;
54855;SDS011;40748;53.168;5.800;2022-11-30T03:59:04;0.70;;;0.10;;
54855;SDS011;40748;53.168;5.800;2022-11-30T04:01:34;0.10;;;0.00;;
54855;SDS011;40748;53.168;5.800;2022-11-30T04:04:04;0.10;;;0.00;;
54855;SDS011;40748;53.168;5.800;2022-11-30T04:06:34;0.10;;;0.00;;
54855;SDS011;40748;53.168;5.800;2022-11-30T04:09:04;0.10;;;0.00;;
54855;SDS011;40748;53.168;5.800;2022-11-30T04:11:34;4.30;;;0.90;;
54855;SDS011;40748;53.168;5.800;2022-11-30T04:14:04;4.30;;;0.90;;
54855;SDS011;40748;53.168;5.800;2022-11-30T04:16:34;4.30;;;0.90;;
54855;SDS011;40748;53.168;5.800;2022-11-30T04:19:04;4.30;;;0.90;;
54855;SDS011;40748;53.168;5.800;2022-11-30T04:21:34;0.20;;;0.00;;
54855;SDS011;40748;53.168;5.800;2022-11-30T04:24:04;0.20;;;0.00;;
54855;SDS011;40748;53.168;5.800;2022-11-30T04:26:34;0.20;;;0.00;;
54855;SDS011;40748;53.168;5.800;2022-11-30T04:29:04;0.20;;;0.00;;
54855;SDS011;40748;53.168;5.800;2022-11-30T04:31:34;0.30;;;0.10;;
54855;SDS011;40748;53.168;5.800;2022-11-30T04:34:04;0.30;;;0.10;;
54855;SDS011;40748;53.168;5.800;2022-11-30T04:36:34;0.30;;;0.10;;
54855;SDS011;40748;53.168;5.800;2022-11-30T04:39:04;0.30;;;0.10;;
54855;SDS011;40748;53.168;5.800;2022-11-30T04:41:34;0.10;;;0.00;;
54855;SDS011;40748;53.168;5.800;2022-11-30T04:44:05;0.10;;;0.00;;
54855;SDS011;40748;53.168;5.800;2022-11-30T04:46:35;0.10;;;0.00;;
54855;SDS011;40748;53.168;5.800;2022-11-30T04:51:35;0.10;;;0.00;;
54855;SDS011;40748;53.168;5.800;2022-11-30T04:54:05;0.10;;;0.00;;
54855;SDS011;40748;53.168;5.800;2022-11-30T04:56:34;0.10;;;0.00;;
54855;SDS011;40748;53.168;5.800;2022-11-30T04:59:04;0.10;;;0.00;;
54855;SDS011;40748;53.168;5.800;2022-11-30T05:01:34;0.40;;;0.20;;
54855;SDS011;40748;53.168;5.800;2022-11-30T05:04:04;0.40;;;0.20;;
54855;SDS011;40748;53.168;5.800;2022-11-30T05:06:34;0.40;;;0.20;;
54855;SDS011;40748;53.168;5.800;2022-11-30T05:09:04;0.40;;;0.20;;
54855;SDS011;40748;53.168;5.800;2022-11-30T05:11:34;0.10;;;0.00;;
54855;SDS011;40748;53.168;5.800;2022-11-30T05:14:04;0.10;;;0.00;;
54855;SDS011;40748;53.168;5.800;2022-11-30T05:16:34;0.10;;;0.00;;
54855;SDS011;40748;53.168;5.800;2022-11-30T05:19:04;0.10;;;0.00;;
54855;SDS011;40748;53.168;5.800;2022-11-30T05:29:04;0.30;;;0.00;;
54855;SDS011;40748;53.168;5.800;2022-11-30T05:31:37;0.10;;;0.10;;
54855;SDS011;40748;53.168;5.800;2022-11-30T05:34:04;0.10;;;0.10;;
54855;SDS011;40748;53.168;5.800;2022-11-30T05:36:34;0.10;;;0.10;;
54855;SDS011;40748;53.168;5.800;2022-11-30T05:39:04;0.10;;;0.10;;
54855;SDS011;40748;53.168;5.800;2022-11-30T05:41:34;0.10;;;0.00;;
54855;SDS011;40748;53.168;5.800;2022-11-30T05:44:04;0.10;;;0.00;;
54855;SDS011;40748;53.168;5.800;2022-11-30T05:46:34;0.10;;;0.00;;
54855;SDS011;40748;53.168;5.800;2022-11-30T05:49:04;0.10;;;0.00;;
54855;SDS011;40748;53.168;5.800;2022-11-30T05:51:34;0.20;;;0.00;;
54855;SDS011;40748;53.168;5.800;2022-11-30T05:54:04;0.20;;;0.00;;
54855;SDS011;40748;53.168;5.800;2022-11-30T05:56:34;0.20;;;0.00;;
54855;SDS011;40748;53.168;5.800;2022-11-30T05:59:04;0.20;;;0.00;;
54855;SDS011;40748;53.168;5.800;2022-11-30T06:01:34;0.30;;;0.10;;
54855;SDS011;40748;53.168;5.800;2022-11-30T06:04:04;0.30;;;0.10;;
54855;SDS011;40748;53.168;5.800;2022-11-30T06:06:34;0.30;;;0.10;;
54855;SDS011;40748;53.168;5.800;2022-11-30T06:11:34;0.20;;;0.10;;
54855;SDS011;40748;53.168;5.800;2022-11-30T06:14:04;0.20;;;0.10;;
54855;SDS011;40748;53.168;5.800;2022-11-30T06:16:37;0.20;;;0.10;;
54855;SDS011;40748;53.168;5.800;2022-11-30T06:21:34;0.10;;;0.00;;
54855;SDS011;40748;53.168;5.800;2022-11-30T06:24:04;0.10;;;0.00;;
54855;SDS011;40748;53.168;5.800;2022-11-30T06:26:34;0.10;;;0.00;;
54855;SDS011;40748;53.168;5.800;2022-11-30T06:29:04;0.10;;;0.00;;
54855;SDS011;40748;53.168;5.800;2022-11-30T06:31:34;0.50;;;0.10;;
54855;SDS011;40748;53.168;5.800;2022-11-30T06:34:04;0.50;;;0.10;;
54855;SDS011;40748;53.168;5.800;2022-11-30T06:39:04;0.50;;;0.10;;
54855;SDS011;40748;53.168;5.800;2022-11-30T06:41:34;1.70;;;0.70;;
54855;SDS011;40748;53.168;5.800;2022-11-30T06:44:06;1.70;;;0.70;;
54855;SDS011;40748;53.168;5.800;2022-11-30T06:46:34;1.70;;;0.70;;
54855;SDS011;40748;53.168;5.800;2022-11-30T06:49:04;1.70;;;0.70;;
54855;SDS011;40748;53.168;5.800;2022-11-30T06:51:34;0.10;;;0.00;;
54855;SDS011;40748;53.168;5.800;2022-11-30T06:54:04;0.10;;;0.00;;
54855;SDS011;40748;53.168;5.800;2022-11-30T06:56:34;0.10;;;0.00;;
54855;SDS011;40748;53.168;5.800;2022-11-30T06:59:04;0.10;;;0.00;;
54855;SDS011;40748;53.168;5.800;2022-11-30T07:01:34;1.00;;;0.30;;
54855;SDS011;40748;53.168;5.800;2022-11-30T07:04:04;1.00;;;0.30;;
54855;SDS011;40748;53.168;5.800;2022-11-30T07:06:34;1.00;;;0.30;;
54855;SDS011;40748;53.168;5.800;2022-11-30T07:09:05;1.00;;;0.30;;
54855;SDS011;40748;53.168;5.800;2022-11-30T07:11:34;0.10;;;0.00;;
54855;SDS011;40748;53.168;5.800;2022-11-30T07:14:04;0.10;;;0.00;;
54855;SDS011;40748;53.168;5.800;2022-11-30T07:16:34;0.10;;;0.00;;
54855;SDS011;40748;53.168;5.800;2022-11-30T07:19:04;0.10;;;0.00;;
54855;SDS011;40748;53.168;5.800;2022-11-30T07:21:34;0.10;;;0.00;;
54855;SDS011;40748;53.168;5.800;2022-11-30T07:24:04;0.10;;;0.00;;
54855;SDS011;40748;53.168;5.800;2022-11-30T07:26:34;0.10;;;0.00;;
54855;SDS011;40748;53.168;5.800;2022-11-30T07:29:04;0.10;;;0.00;;
54855;SDS011;40748;53.168;5.800;2022-11-30T07:31:34;0.30;;;0.10;;
54855;SDS011;40748;53.168;5.800;2022-11-30T07:34:05;0.30;;;0.10;;
54855;SDS011;40748;53.168;5.800;2022-11-30T07:44:04;0.10;;;0.00;;
54855;SDS011;40748;53.168;5.800;2022-11-30T07:46:34;0.10;;;0.00;;
54855;SDS011;40748;53.168;5.800;2022-11-30T07:49:05;0.10;;;0.00;;
54855;SDS011;40748;53.168;5.800;2022-11-30T07:54:04;0.50;;;0.40;;
54855;SDS011;40748;53.168;5.800;2022-11-30T07:56:34;0.50;;;0.40;;
54855;SDS011;40748;53.168;5.800;2022-11-30T07:59:04;0.50;;;0.40;;
54855;SDS011;40748;53.168;5.800;2022-11-30T08:04:04;0.10;;;0.00;;
54855;SDS011;40748;53.168;5.800;2022-11-30T08:06:34;0.10;;;0.00;;
54855;SDS011;40748;53.168;5.800;2022-11-30T08:09:04;0.10;;;0.00;;
54855;SDS011;40748;53.168;5.800;2022-11-30T08:11:34;1.90;;;0.50;;
54855;SDS011;40748;53.168;5.800;2022-11-30T08:14:04;1.90;;;0.50;;
54855;SDS011;40748;53.168;5.800;2022-11-30T08:16:36;1.90;;;0.50;;
54855;SDS011;40748;53.168;5.800;2022-11-30T08:19:04;1.90;;;0.50;;
54855;SDS011;40748;53.168;5.800;2022-11-30T08:21:34;0.40;;;0.10;;
54855;SDS011;40748;53.168;5.800;2022-11-30T08:24:04;0.40;;;0.10;;
54855;SDS011;40748;53.168;5.800;2022-11-30T08:26:34;0.40;;;0.10;;
54855;SDS011;40748;53.168;5.800;2022-11-30T08:29:04;0.40;;;0.10;;
54855;SDS011;40748;53.168;5.800;2022-11-30T08:31:35;0.50;;;0.20;;
54855;SDS011;40748;53.168;5.800;2022-11-30T08:34:06;0.50;;;0.20;;
54855;SDS011;40748;53.168;5.800;2022-11-30T08:36:34;0.50;;;0.20;;
54855;SDS011;40748;53.168;5.800;2022-11-30T08:39:06;0.50;;;0.20;;
54855;SDS011;40748;53.168;5.800;2022-11-30T08:41:34;0.60;;;0.30;;
54855;SDS011;40748;53.168;5.800;2022-11-30T08:44:04;0.60;;;0.30;;
54855;SDS011;40748;53.168;5.800;2022-11-30T08:46:34;0.60;;;0.30;;
54855;SDS011;40748;53.168;5.800;2022-11-30T08:49:04;0.60;;;0.30;;
54855;SDS011;40748;53.168;5.800;2022-11-30T08:51:34;1.20;;;0.70;;
54855;SDS011;40748;53.168;5.800;2022-11-30T08:54:04;1.20;;;0.70;;
54855;SDS011;40748;53.168;5.800;2022-11-30T08:56:34;1.20;;;0.70;;
54855;SDS011;40748;53.168;5.800;2022-11-30T08:59:04;1.20;;;0.70;;
54855;SDS011;40748;53.168;5.800;2022-11-30T09:01:34;1.40;;;1.00;;
54855;SDS011;40748;53.168;5.800;2022-11-30T09:04:04;1.40;;;1.00;;
54855;SDS011;40748;53.168;5.800;2022-11-30T09:06:34;1.40;;;1.00;;
54855;SDS011;40748;53.168;5.800;2022-11-30T09:09:04;1.40;;;1.00;;
54855;SDS011;40748;53.168;5.800;2022-11-30T09:11:34;1.00;;;0.70;;
54855;SDS011;40748;53.168;5.800;2022-11-30T09:14:04;1.00;;;0.70;;
54855;SDS011;40748;53.168;5.800;2022-11-30T09:16:34;1.00;;;0.70;;
54855;SDS011;40748;53.168;5.800;2022-11-30T09:19:04;1.00;;;0.70;;
54855;SDS011;40748;53.168;5.800;2022-11-30T09:21:34;2.80;;;1.80;;
54855;SDS011;40748;53.168;5.800;2022-11-30T09:24:04;2.80;;;1.80;;
54855;SDS011;40748;53.168;5.800;2022-11-30T09:26:34;2.80;;;1.80;;
54855;SDS011;40748;53.168;5.800;2022-11-30T09:29:04;2.80;;;1.80;;
54855;SDS011;40748;53.168;5.800;2022-11-30T09:31:34;6.10;;;0.90;;
54855;SDS011;40748;53.168;5.800;2022-11-30T09:34:04;6.10;;;0.90;;
54855;SDS011;40748;53.168;5.800;2022-11-30T09:36:34;6.10;;;0.90;;
54855;SDS011;40748;53.168;5.800;2022-11-30T09:39:04;6.10;;;0.90;;
54855;SDS011;40748;53.168;5.800;2022-11-30T09:41:47;0.60;;;0.40;;
54855;SDS011;40748;53.168;5.800;2022-11-30T09:44:09;0.60;;;0.40;;
54855;SDS011;40748;53.168;5.800;2022-11-30T09:46:38;0.60;;;0.40;;
54855;SDS011;40748;53.168;5.800;2022-11-30T09:49:08;0.60;;;0.40;;
54855;SDS011;40748;53.168;5.800;2022-11-30T09:51:39;2.20;;;0.60;;
54855;SDS011;40748;53.168;5.800;2022-11-30T09:54:05;2.20;;;0.60;;
54855;SDS011;40748;53.168;5.800;2022-11-30T09:56:37;2.20;;;0.60;;
54855;SDS011;40748;53.168;5.800;2022-11-30T09:59:10;2.20;;;0.60;;
54855;SDS011;40748;53.168;5.800;2022-11-30T10:01:34;1.80;;;1.10;;
54855;SDS011;40748;53.168;5.800;2022-11-30T10:04:04;1.80;;;1.10;;
54855;SDS011;40748;53.168;5.800;2022-11-30T10:06:42;1.80;;;1.10;;
54855;SDS011;40748;53.168;5.800;2022-11-30T10:09:14;1.80;;;1.10;;
54855;SDS011;40748;53.168;5.800;2022-11-30T10:11:43;0.30;;;0.10;;
54855;SDS011;40748;53.168;5.800;2022-11-30T10:14:17;0.30;;;0.10;;
54855;SDS011;40748;53.168;5.800;2022-11-30T10:16:39;0.30;;;0.10;;
54855;SDS011;40748;53.168;5.800;2022-11-30T10:19:14;0.30;;;0.10;;
54855;SDS011;40748;53.168;5.800;2022-11-30T10:21:46;2.40;;;1.00;;
54855;SDS011;40748;53.168;5.800;2022-11-30T10:24:16;2.40;;;1.00;;
54855;SDS011;40748;53.168;5.800;2022-11-30T10:26:35;2.40;;;1.00;;
54855;SDS011;40748;53.168;5.800;2022-11-30T10:29:12;2.40;;;1.00;;
54855;SDS011;40748;53.168;5.800;2022-11-30T10:31:36;1.20;;;0.70;;
54855;SDS011;40748;53.168;5.800;2022-11-30T10:34:17;1.20;;;0.70;;
54855;SDS011;40748;53.168;5.800;2022-11-30T10:36:37;1.20;;;0.70;;
54855;SDS011;40748;53.168;5.800;2022-11-30T10:39:12;1.20;;;0.70;;
54855;SDS011;40748;53.168;5.800;2022-11-30T10:41:39;0.90;;;0.70;;
54855;SDS011;40748;53.168;5.800;2022-11-30T10:44:10;0.90;;;0.70;;
54855;SDS011;40748;53.168;5.800;2022-11-30T10:46:36;0.90;;;0.70;;
54855;SDS011;40748;53.168;5.800;2022-11-30T10:49:06;0.90;;;0.70;;
54855;SDS011;40748;53.168;5.800;2022-11-30T10:51:37;0.50;;;0.30;;
54855;SDS011;40748;53.168;5.800;2022-11-30T10:54:12;0.50;;;0.30;;
54855;SDS011;40748;53.168;5.800;2022-11-30T10:56:34;0.50;;;0.30;;
54855;SDS011;40748;53.168;5.800;2022-11-30T10:59:12;0.50;;;0.30;;
54855;SDS011;40748;53.168;5.800;2022-11-30T11:01:36;1.60;;;1.20;;
54855;SDS011;40748;53.168;5.800;2022-11-30T11:06:40;1.60;;;1.20;;
54855;SDS011;40748;53.168;5.800;2022-11-30T11:14:14;3.50;;;1.30;;
54855;SDS011;40748;53.168;5.800;2022-11-30T11:16:48;3.50;;;1.30;;
54855;SDS011;40748;53.168;5.800;2022-11-30T11:19:18;3.50;;;1.30;;
54855;SDS011;40748;53.168;5.800;2022-11-30T11:21:34;2.30;;;0.80;;
54855;SDS011;40748;53.168;5.800;2022-11-30T11:24:08;2.30;;;0.80;;
54855;SDS011;40748;53.168;5.800;2022-11-30T11:26:34;2.30;;;0.80;;
54855;SDS011;40748;53.168;5.800;2022-11-30T11:29:04;2.30;;;0.80;;
54855;SDS011;40748;53.168;5.800;2022-11-30T11:31:35;2.00;;;0.60;;
54855;SDS011;40748;53.168;5.800;2022-11-30T11:34:21;2.00;;;0.60;;
54855;SDS011;40748;53.168;5.800;2022-11-30T11:36:34;2.00;;;0.60;;
54855;SDS011;40748;53.168;5.800;2022-11-30T11:39:23;2.00;;;0.60;;
54855;SDS011;40748;53.168;5.800;2022-11-30T11:41:36;1.40;;;1.00;;
54855;SDS011;40748;53.168;5.800;2022-11-30T11:44:17;1.40;;;1.00;;
54855;SDS011;40748;53.168;5.800;2022-11-30T11:46:37;1.40;;;1.00;;
54855;SDS011;40748;53.168;5.800;2022-11-30T11:49:09;1.40;;;1.00;;
54855;SDS011;40748;53.168;5.800;2022-11-30T11:51:37;0.80;;;0.40;;
54855;SDS011;40748;53.168;5.800;2022-11-30T11:54:17;0.80;;;0.40;;
54855;SDS011;40748;53.168;5.800;2022-11-30T11:56:35;0.80;;;0.40;;
54855;SDS011;40748;53.168;5.800;2022-11-30T12:01:43;0.70;;;0.50;;
54855;SDS011;40748;53.168;5.800;2022-11-30T12:04:22;0.70;;;0.50;;
54855;SDS011;40748;53.168;5.800;2022-11-30T12:06:34;0.70;;;0.50;;
54855;SDS011;40748;53.168;5.800;2022-11-30T12:09:11;0.70;;;0.50;;
54855;SDS011;40748;53.168;5.800;2022-11-30T12:14:10;1.20;;;0.80;;
54855;SDS011;40748;53.168;5.800;2022-11-30T12:16:42;1.20;;;0.80;;
54855;SDS011;40748;53.168;5.800;2022-11-30T12:21:47;1.90;;;1.10;;
54855;SDS011;40748;53.168;5.800;2022-11-30T12:26:37;1.90;;;1.10;;
54855;SDS011;40748;53.168;5.800;2022-11-30T12:29:18;1.90;;;1.10;;
54855;SDS011;40748;53.168;5.800;2022-11-30T12:34:09;3.20;;;0.60;;
54855;SDS011;40748;53.168;5.800;2022-11-30T12:36:45;3.20;;;0.60;;
54855;SDS011;40748;53.168;5.800;2022-11-30T12:39:07;3.20;;;0.60;;
54855;SDS011;40748;53.168;5.800;2022-11-30T12:41:38;12.30;;;2.10;;
54855;SDS011;40748;53.168;5.800;2022-11-30T12:44:13;12.30;;;2.10;;
54855;SDS011;40748;53.168;5.800;2022-11-30T12:46:41;12.30;;;2.10;;
54855;SDS011;40748;53.168;5.800;2022-11-30T12:49:17;12.30;;;2.10;;
54855;SDS011;40748;53.168;5.800;2022-11-30T12:54:09;0.40;;;0.20;;
54855;SDS011;40748;53.168;5.800;2022-11-30T12:56:40;0.40;;;0.20;;
54855;SDS011;40748;53.168;5.800;2022-11-30T12:59:14;0.40;;;0.20;;
54855;SDS011;40748;53.168;5.800;2022-11-30T13:14:10;2.50;;;1.30;;
54855;SDS011;40748;53.168;5.800;2022-11-30T13:21:39;2.90;;;1.50;;
54855;SDS011;40748;53.168;5.800;2022-11-30T13:24:09;2.90;;;1.50;;
54855;SDS011;40748;53.168;5.800;2022-11-30T13:26:40;2.90;;;1.50;;
54855;SDS011;40748;53.168;5.800;2022-11-30T13:31:38;1.90;;;1.50;;
54855;SDS011;40748;53.168;5.800;2022-11-30T13:39:15;1.90;;;1.50;;
54855;SDS011;40748;53.168;5.800;2022-11-30T13:41:34;3.40;;;1.90;;
54855;SDS011;40748;53.168;5.800;2022-11-30T13:44:04;3.40;;;1.90;;
54855;SDS011;40748;53.168;5.800;2022-11-30T13:49:11;3.40;;;1.90;;
54855;SDS011;40748;53.168;5.800;2022-11-30T13:51:36;0.40;;;0.30;;
54855;SDS011;40748;53.168;5.800;2022-11-30T14:01:34;4.60;;;1.60;;
54855;SDS011;40748;53.168;5.800;2022-11-30T14:06:45;4.60;;;1.60;;
54855;SDS011;40748;53.168;5.800;2022-11-30T14:09:11;4.60;;;1.60;;
54855;SDS011;40748;53.168;5.800;2022-11-30T14:16:34;2.20;;;1.30;;
54855;SDS011;40748;53.168;5.800;2022-11-30T14:21:34;1.20;;;0.90;;
54855;SDS011;40748;53.168;5.800;2022-11-30T14:24:11;1.20;;;0.90;;
54855;SDS011;40748;53.168;5.800;2022-11-30T14:26:36;1.20;;;0.90;;
54855;SDS011;40748;53.168;5.800;2022-11-30T14:29:14;1.20;;;0.90;;
54855;SDS011;40748;53.168;5.800;2022-11-30T14:34:08;2.20;;;0.90;;
54855;SDS011;40748;53.168;5.800;2022-11-30T14:39:22;2.20;;;0.90;;
54855;SDS011;40748;53.168;5.800;2022-11-30T14:41:34;1.60;;;0.70;;
54855;SDS011;40748;53.168;5.800;2022-11-30T14:44:09;1.60;;;0.70;;
54855;SDS011;40748;53.168;5.800;2022-11-30T14:46:34;1.60;;;0.70;;
54855;SDS011;40748;53.168;5.800;2022-11-30T14:49:11;1.60;;;0.70;;
54855;SDS011;40748;53.168;5.800;2022-11-30T14:51:35;1.40;;;0.70;;
54855;SDS011;40748;53.168;5.800;2022-11-30T14:54:12;1.40;;;0.70;;
54855;SDS011;40748;53.168;5.800;2022-11-30T14:59:15;1.40;;;0.70;;
54855;SDS011;40748;53.168;5.800;2022-11-30T15:01:34;2.30;;;0.90;;
54855;SDS011;40748;53.168;5.800;2022-11-30T15:04:09;2.30;;;0.90;;
54855;SDS011;40748;53.168;5.800;2022-11-30T15:06:37;2.30;;;0.90;;
54855;SDS011;40748;53.168;5.800;2022-11-30T15:09:12;2.30;;;0.90;;
54855;SDS011;40748;53.168;5.800;2022-11-30T15:14:07;1.20;;;0.30;;
54855;SDS011;40748;53.168;5.800;2022-11-30T15:16:34;1.20;;;0.30;;
54855;SDS011;40748;53.168;5.800;2022-11-30T15:19:17;1.20;;;0.30;;
54855;SDS011;40748;53.168;5.800;2022-11-30T15:21:34;10.30;;;1.20;;
54855;SDS011;40748;53.168;5.800;2022-11-30T15:26:38;10.30;;;1.20;;
54855;SDS011;40748;53.168;5.800;2022-11-30T15:31:37;1.60;;;0.80;;
54855;SDS011;40748;53.168;5.800;2022-11-30T15:34:06;1.60;;;0.80;;
54855;SDS011;40748;53.168;5.800;2022-11-30T15:36:35;1.60;;;0.80;;
54855;SDS011;40748;53.168;5.800;2022-11-30T15:41:35;2.00;;;1.30;;
54855;SDS011;40748;53.168;5.800;2022-11-30T15:49:14;2.00;;;1.30;;
54855;SDS011;40748;53.168;5.800;2022-11-30T15:51:37;2.60;;;1.20;;
54855;SDS011;40748;53.168;5.800;2022-11-30T15:54:04;2.60;;;1.20;;
54855;SDS011;40748;53.168;5.800;2022-11-30T15:56:34;2.60;;;1.20;;
54855;SDS011;40748;53.168;5.800;2022-11-30T16:01:52;1.50;;;0.80;;
54855;SDS011;40748;53.168;5.800;2022-11-30T16:04:04;1.50;;;0.80;;
54855;SDS011;40748;53.168;5.800;2022-11-30T16:06:36;1.50;;;0.80;;
54855;SDS011;40748;53.168;5.800;2022-11-30T16:09:16;1.50;;;0.80;;
54855;SDS011;40748;53.168;5.800;2022-11-30T16:11:34;2.80;;;0.50;;
54855;SDS011;40748;53.168;5.800;2022-11-30T16:14:04;2.80;;;0.50;;
54855;SDS011;40748;53.168;5.800;2022-11-30T16:19:04;2.80;;;0.50;;
54855;SDS011;40748;53.168;5.800;2022-11-30T16:24:05;1.40;;;0.70;;
54855;SDS011;40748;53.168;5.800;2022-11-30T16:26:34;1.40;;;0.70;;
54855;SDS011;40748;53.168;5.800;2022-11-30T16:29:04;1.40;;;0.70;;
54855;SDS011;40748;53.168;5.800;2022-11-30T16:31:34;0.40;;;0.20;;
54855;SDS011;40748;53.168;5.800;2022-11-30T16:34:04;0.40;;;0.20;;
54855;SDS011;40748;53.168;5.800;2022-11-30T16:36:35;0.40;;;0.20;;
54855;SDS011;40748;53.168;5.800;2022-11-30T16:39:05;0.40;;;0.20;;
54855;SDS011;40748;53.168;5.800;2022-11-30T16:44:09;1.30;;;0.70;;
54855;SDS011;40748;53.168;5.800;2022-11-30T16:46:35;1.30;;;0.70;;
54855;SDS011;40748;53.168;5.800;2022-11-30T16:54:04;3.10;;;0.80;;
54855;SDS011;40748;53.168;5.800;2022-11-30T16:59:04;3.10;;;0.80;;
54855;SDS011;40748;53.168;5.800;2022-11-30T17:01:37;2.90;;;1.60;;
54855;SDS011;40748;53.168;5.800;2022-11-30T17:04:10;2.90;;;1.60;;
54855;SDS011;40748;53.168;5.800;2022-11-30T17:06:34;2.90;;;1.60;;
54855;SDS011;40748;53.168;5.800;2022-11-30T17:09:05;2.90;;;1.60;;
54855;SDS011;40748;53.168;5.800;2022-11-30T17:11:36;0.90;;;0.50;;
54855;SDS011;40748;53.168;5.800;2022-11-30T17:14:04;0.90;;;0.50;;
54855;SDS011;40748;53.168;5.800;2022-11-30T17:19:04;0.90;;;0.50;;
54855;SDS011;40748;53.168;5.800;2022-11-30T17:21:36;0.20;;;0.10;;
54855;SDS011;40748;53.168;5.800;2022-11-30T17:24:05;0.20;;;0.10;;
54855;SDS011;40748;53.168;5.800;2022-11-30T17:26:34;0.20;;;0.10;;
54855;SDS011;40748;53.168;5.800;2022-11-30T17:29:04;0.20;;;0.10;;
54855;SDS011;40748;53.168;5.800;2022-11-30T17:31:34;2.30;;;1.00;;
54855;SDS011;40748;53.168;5.800;2022-11-30T17:34:04;2.30;;;1.00;;
54855;SDS011;40748;53.168;5.800;2022-11-30T17:39:05;2.30;;;1.00;;
54855;SDS011;40748;53.168;5.800;2022-11-30T17:41:34;1.40;;;0.90;;